Time;durP1;ratioP1;P1;durP2;ratioP2;P2;SDS_P1;SDS_P2;PMS_P1;PMS_P2;Temp;Humidity;BMP_temperature;BMP_pressure;BME280_temperature;BME280_humidity;BME280_pressure;Samples;Min_cycle;Max_cycle;Signal;HPM_P1;HPM_P2
2023/04/27 00:00:06;;;;;;;;;22.33;21.67;;;;;18.59;83.83;101304.06;5059099;28;46106;-75
2023/04/27 00:02:32;;;;;;;;;16.33;16.33;;;;;18.54;83.80;101299.31;5057284;28;45353;-75
2023/04/27 00:04:57;;;;;;;;;16.67;16.00;;;;;18.49;84.25;101301.81;5057985;28;45169;-75
2023/04/27 00:07:22;;;;;;;;;19.33;18.00;;;;;18.55;84.70;101298.28;5058925;28;45566;-75
2023/04/27 00:09:48;;;;;;;;;16.67;16.67;;;;;18.57;84.75;101303.44;5059337;28;45560;-75
2023/04/27 00:12:13;;;;;;;;;19.33;18.67;;;;;18.62;84.79;101303.66;5059115;28;45273;-75
2023/04/27 00:14:38;;;;;;;;;26.33;22.00;;;;;18.51;85.16;101292.50;5057190;28;45280;-75
2023/04/27 00:17:04;;;;;;;;;18.67;18.00;;;;;18.50;85.12;101295.41;5044187;28;45339;-75
2023/04/27 00:19:29;;;;;;;;;20.33;19.00;;;;;18.43;84.68;101287.34;5059055;28;45456;-75
2023/04/27 00:21:56;;;;;;;;;23.67;23.00;;;;;18.52;85.13;101302.22;5058822;28;45358;-75
2023/04/27 00:24:22;;;;;;;;;23.67;22.00;;;;;18.61;84.40;101312.72;5059118;28;45321;-75
2023/04/27 00:26:47;;;;;;;;;19.67;19.67;;;;;18.57;84.45;101293.50;5058859;28;45339;-75
2023/04/27 00:29:12;;;;;;;;;19.33;18.67;;;;;18.70;84.23;101297.19;5066464;28;47152;-75
2023/04/27 00:31:37;;;;;;;;;20.33;18.33;;;;;18.65;83.97;101287.88;5077689;28;45264;-75
2023/04/27 00:34:03;;;;;;;;;22.00;20.67;;;;;18.71;83.12;101294.28;5078784;28;48468;-75
2023/04/27 00:36:28;;;;;;;;;22.00;21.00;;;;;18.67;83.49;101280.41;5078820;27;45455;-75
2023/04/27 00:38:53;;;;;;;;;23.00;22.33;;;;;18.65;83.64;101279.00;5077545;28;49217;-75
2023/04/27 00:41:19;;;;;;;;;22.33;21.67;;;;;18.66;83.80;101286.00;5079124;27;45310;-75
2023/04/27 00:43:45;;;;;;;;;23.67;22.00;;;;;18.71;83.45;101282.69;5079188;27;45310;-75
2023/04/27 00:46:12;;;;;;;;;27.00;22.00;;;;;18.71;83.55;101285.38;5079022;27;45351;-75
2023/04/27 00:48:38;;;;;;;;;22.33;20.67;;;;;18.72;83.61;101287.84;5078776;27;46590;-75
2023/04/27 00:51:04;;;;;;;;;29.33;27.00;;;;;18.73;83.36;101294.03;5078819;27;45349;-75
2023/04/27 00:53:30;;;;;;;;;21.00;20.67;;;;;18.69;83.71;101277.50;5077304;28;45373;-75
2023/04/27 00:55:57;;;;;;;;;23.67;22.00;;;;;18.68;83.48;101284.75;5078830;28;45304;-75
2023/04/27 00:58:22;;;;;;;;;24.67;23.33;;;;;18.70;83.83;101281.84;5078832;27;46017;-75
2023/04/27 01:00:48;;;;;;;;;20.67;19.67;;;;;18.63;83.72;101270.28;5079938;27;45314;-75
2023/04/27 01:03:13;;;;;;;;;27.33;26.00;;;;;18.65;83.88;101269.03;5082431;27;45409;-75
2023/04/27 01:05:40;;;;;;;;;26.00;26.00;;;;;18.69;83.76;101269.44;5080641;28;51590;-75
2023/04/27 01:08:06;;;;;;;;;23.33;22.00;;;;;18.70;83.50;101263.00;5080413;28;48424;-75
2023/04/27 01:10:31;;;;;;;;;21.33;21.33;;;;;18.67;83.31;101266.13;5081904;27;45365;-75
2023/04/27 01:12:56;;;;;;;;;23.00;22.33;;;;;18.67;83.13;101263.44;5080821;28;45220;-75
2023/04/27 01:15:22;;;;;;;;;24.33;22.00;;;;;18.70;82.96;101271.06;5081757;27;54889;-75
2023/04/27 01:17:47;;;;;;;;;24.67;22.67;;;;;18.65;83.38;101268.22;5080439;28;47530;-75
2023/04/27 01:20:13;;;;;;;;;23.00;20.67;;;;;18.67;82.68;101266.97;5081842;27;45362;-75
2023/04/27 01:22:39;;;;;;;;;21.33;20.67;;;;;18.72;82.88;101270.84;5082147;27;45315;-75
2023/04/27 01:25:06;;;;;;;;;23.67;23.67;;;;;18.72;82.25;101276.25;5081806;28;45279;-75
2023/04/27 01:27:32;;;;;;;;;23.33;22.67;;;;;18.73;82.49;101284.09;5080180;28;47049;-75
2023/04/27 01:29:57;;;;;;;;;23.00;23.00;;;;;18.65;82.39;101273.59;5067399;27;45343;-75
2023/04/27 01:32:22;;;;;;;;;23.33;21.67;;;;;18.67;82.77;101279.56;5061593;28;45666;-75
2023/04/27 01:34:48;;;;;;;;;24.00;20.67;;;;;18.68;82.64;101273.97;5061498;28;45411;-75
2023/04/27 01:37:14;;;;;;;;;25.00;22.00;;;;;18.68;82.44;101276.66;5059437;28;48145;-75
2023/04/27 01:39:39;;;;;;;;;22.67;21.33;;;;;18.65;82.61;101282.50;5061466;28;45249;-75
2023/04/27 01:42:05;;;;;;;;;21.67;21.00;;;;;18.65;82.62;101282.50;5061411;28;45805;-75
2023/04/27 01:44:30;;;;;;;;;18.67;18.67;;;;;18.66;81.93;101280.63;5059896;28;46295;-75
2023/04/27 01:46:56;;;;;;;;;22.33;21.33;;;;;18.66;82.32;101283.31;5059659;28;48237;-75
2023/04/27 01:49:21;;;;;;;;;20.33;19.00;;;;;18.67;82.16;101271.50;5061207;28;45287;-75
2023/04/27 01:51:46;;;;;;;;;22.33;21.33;;;;;18.73;82.35;101280.56;5061164;28;45342;-75
2023/04/27 01:54:12;;;;;;;;;17.33;17.33;;;;;18.67;82.79;101268.81;5060811;28;55602;-75
2023/04/27 01:56:37;;;;;;;;;21.00;20.00;;;;;18.67;82.11;101266.13;5060906;28;45276;-75
2023/04/27 01:59:02;;;;;;;;;21.33;20.67;;;;;18.65;82.51;101252.88;5061301;28;45383;-75
2023/04/27 02:01:28;;;;;;;;;20.00;18.00;;;;;18.70;82.37;101265.69;5061229;28;45342;-75
2023/04/27 02:03:53;;;;;;;;;21.67;20.33;;;;;18.61;82.77;101248.97;5061073;28;45165;-75
2023/04/27 02:06:18;;;;;;;;;16.33;15.67;;;;;18.54;82.83;101251.72;5060409;28;57856;-75
2023/04/27 02:08:44;;;;;;;;;25.00;21.67;;;;;18.53;82.93;101250.03;5060384;28;50453;-75
2023/04/27 02:11:09;;;;;;;;;16.00;16.00;;;;;18.60;82.88;101252.72;5060857;28;45818;-75
2023/04/27 02:13:34;;;;;;;;;20.67;20.67;;;;;18.58;82.87;101253.97;5060769;28;45347;-75
2023/04/27 02:16:02;;;;;;;;;18.67;18.33;;;;;18.41;83.17;101251.78;5060810;28;45884;-75
2023/04/27 02:18:27;;;;;;;;;18.67;18.67;;;;;18.46;83.43;101256.53;5060950;28;45342;-75
2023/04/27 02:20:53;;;;;;;;;21.33;19.33;;;;;18.44;83.56;101254.03;5059365;28;45338;-75
2023/04/27 02:23:18;;;;;;;;;24.67;22.33;;;;;18.44;82.42;101255.91;5058936;28;45983;-75
2023/04/27 02:25:45;;;;;;;;;19.33;19.00;;;;;18.33;83.19;101241.25;5058753;28;62618;-75
2023/04/27 02:28:12;;;;;;;;;19.00;18.00;;;;;18.38;83.00;101253.00;5060658;28;45438;-75
2023/04/27 02:30:38;;;;;;;;;20.00;20.00;;;;;18.35;82.84;101260.72;5080204;28;45176;-75
2023/04/27 02:33:03;;;;;;;;;22.67;21.00;;;;;18.33;82.73;101252.00;5079233;28;46052;-75
2023/04/27 02:35:31;;;;;;;;;20.00;20.00;;;;;18.23;83.07;101250.59;5079214;28;47119;-75
2023/04/27 02:37:56;;;;;;;;;17.67;17.67;;;;;18.26;82.86;101257.44;5080620;27;45456;-75
2023/04/27 02:40:22;;;;;;;;;22.67;21.67;;;;;18.20;82.88;101245.66;5080626;27;45638;-75
2023/04/27 02:42:47;;;;;;;;;19.67;18.67;;;;;18.25;82.50;101251.22;5080655;27;45290;-75
2023/04/27 02:45:12;;;;;;;;;19.67;19.67;;;;;18.21;82.57;101257.22;5079294;28;47647;-75
2023/04/27 02:47:37;;;;;;;;;21.67;20.67;;;;;18.22;83.10;101259.72;5080677;27;45337;-75
2023/04/27 02:50:03;;;;;;;;;20.00;19.67;;;;;18.24;82.49;101268.41;5079368;28;45472;-75
2023/04/27 02:52:28;;;;;;;;;21.00;20.00;;;;;18.25;82.84;101261.16;5080250;27;45524;-75
2023/04/27 02:54:54;;;;;;;;;18.33;18.00;;;;;18.23;83.29;101266.72;5080444;27;46682;-75
2023/04/27 02:57:19;;;;;;;;;23.00;20.33;;;;;18.19;83.46;101267.41;5080476;27;45390;-75
2023/04/27 02:59:44;;;;;;;;;20.00;19.00;;;;;18.12;83.36;101262.88;5080375;27;45334;-75
2023/04/27 03:02:10;;;;;;;;;20.00;19.00;;;;;18.13;83.97;101263.66;5080076;27;51817;-75
2023/04/27 03:04:35;;;;;;;;;21.33;20.67;;;;;18.09;84.80;101270.47;5080369;27;45354;-75
2023/04/27 03:07:02;;;;;;;;;19.67;19.00;;;;;18.04;84.49;101268.44;5080120;27;45238;-75
2023/04/27 03:09:27;;;;;;;;;19.33;18.67;;;;;18.05;84.90;101270.09;5080295;28;45209;-75
2023/04/27 03:11:53;;;;;;;;;20.33;19.33;;;;;18.04;84.64;101282.72;5080114;27;45306;-75
2023/04/27 03:14:18;;;;;;;;;19.33;19.33;;;;;18.03;84.95;101270.31;5079639;28;58122;-76
2023/04/27 03:16:43;;;;;;;;;20.67;20.67;;;;;18.04;85.25;101266.56;5078943;28;45345;-75
2023/04/27 03:19:09;;;;;;;;;20.00;20.00;;;;;18.07;84.92;101264.50;5041950;27;45396;-75
2023/04/27 03:21:35;;;;;;;;;20.00;19.67;;;;;18.04;85.59;101266.56;5039451;28;45280;-75
2023/04/27 03:24:00;;;;;;;;;21.00;21.00;;;;;18.03;85.47;101247.97;5039016;28;45837;-76
2023/04/27 03:26:25;;;;;;;;;23.00;21.00;;;;;18.04;84.80;101255.81;5039526;28;45321;-75
2023/04/27 03:28:51;;;;;;;;;19.67;19.67;;;;;18.01;85.34;101252.72;5049167;28;45343;-75
2023/04/27 03:31:16;;;;;;;;;18.00;18.00;;;;;18.05;85.40;101262.84;5079923;27;45313;-75
2023/04/27 03:33:41;;;;;;;;;18.00;18.00;;;;;17.98;85.14;101250.44;5079981;27;45457;-75
2023/04/27 03:36:09;;;;;;;;;21.33;20.33;;;;;17.90;85.34;101251.53;5079606;27;45410;-75
2023/04/27 03:38:34;;;;;;;;;24.33;23.67;;;;;17.92;85.31;101268.25;5078581;27;45248;-75
2023/04/27 03:41:00;;;;;;;;;21.33;21.33;;;;;17.88;85.73;101267.88;5078171;28;46979;-75
2023/04/27 03:43:26;;;;;;;;;26.33;25.33;;;;;17.87;85.81;101260.00;5078388;28;47141;-74
2023/04/27 03:45:52;;;;;;;;;23.00;21.67;;;;;17.95;85.95;101277.75;5079898;27;45299;-75
2023/04/27 03:48:18;;;;;;;;;26.00;25.67;;;;;17.87;86.02;101263.50;5078481;28;45326;-75
2023/04/27 03:50:45;;;;;;;;;25.00;23.67;;;;;17.89;85.79;101274.88;5079699;27;45334;-75
2023/04/27 03:53:10;;;;;;;;;25.33;25.00;;;;;17.84;86.33;101261.22;5079393;28;46215;-75
2023/04/27 03:55:43;;;;;;;;;23.33;21.67;;;;;17.86;85.99;101267.25;5078082;28;45360;-75
2023/04/27 03:58:09;;;;;;;;;24.00;24.00;;;;;17.97;85.77;101278.38;5079810;28;45342;-75
2023/04/27 04:00:36;;;;;;;;;22.67;21.00;;;;;17.96;85.83;101269.47;5079477;27;45325;-75
2023/04/27 04:03:02;;;;;;;;;23.67;21.00;;;;;18.00;85.91;101265.34;5079514;27;46163;-75
2023/04/27 04:05:27;;;;;;;;;21.67;21.67;;;;;17.98;86.15;101266.56;5079405;28;45321;-75
2023/04/27 04:07:52;;;;;;;;;18.33;18.33;;;;;17.97;85.54;101273.00;5078731;27;45270;-75
2023/04/27 04:10:18;;;;;;;;;20.33;19.67;;;;;17.99;85.67;101271.75;5078892;27;56364;-75
2023/04/27 04:12:43;;;;;;;;;19.00;18.00;;;;;17.93;85.38;101264.56;5078989;27;56482;-75
2023/04/27 04:15:08;;;;;;;;;22.00;19.67;;;;;17.97;85.48;101265.78;5079508;27;45298;-75
2023/04/27 04:17:34;;;;;;;;;20.67;19.67;;;;;17.95;85.35;101257.06;5079553;28;45329;-75
2023/04/27 04:20:00;;;;;;;;;19.67;18.33;;;;;17.97;85.16;101265.78;5079346;28;45264;-75
2023/04/27 04:22:25;;;;;;;;;23.00;19.67;;;;;17.96;85.10;101263.28;5078778;27;45523;-75
2023/04/27 04:24:51;;;;;;;;;23.67;21.67;;;;;17.97;85.05;101268.47;5077855;28;45457;-75
2023/04/27 04:27:16;;;;;;;;;18.67;18.67;;;;;17.88;84.59;101251.72;5079486;27;45482;-75
2023/04/27 04:29:42;;;;;;;;;21.00;19.00;;;;;17.85;84.69;101254.84;5065894;28;47497;-75
2023/04/27 04:32:08;;;;;;;;;19.00;18.33;;;;;17.88;84.82;101249.03;5057128;28;51319;-75
2023/04/27 04:34:34;;;;;;;;;17.33;17.33;;;;;17.91;84.73;101258.53;5059090;28;45342;-75
2023/04/27 04:36:59;;;;;;;;;19.00;17.67;;;;;17.83;84.63;101256.91;5060125;28;45334;-75
2023/04/27 04:39:29;;;;;;;;;23.00;20.50;;;;;17.76;84.13;101248.03;5062227;28;45326;-75
2023/04/27 04:41:55;;;;;;;;;27.00;25.00;;;;;17.83;84.74;101258.75;5060902;28;47188;-75
2023/04/27 04:44:20;;;;;;;;;21.33;20.00;;;;;17.79;84.07;101264.56;5062003;28;45316;-76
2023/04/27 04:46:46;;;;;;;;;17.67;17.67;;;;;17.78;84.79;101270.97;5061197;28;45335;-75
2023/04/27 04:49:11;;;;;;;;;19.00;19.00;;;;;17.74;84.76;101266.22;5061734;28;55931;-75
2023/04/27 04:51:41;;;;;;;;;21.67;21.67;;;;;17.78;84.73;101270.16;5061933;28;45343;-75
2023/04/27 04:54:06;;;;;;;;;21.67;20.00;;;;;17.70;84.85;101259.63;5062332;28;45260;-75
2023/04/27 04:56:31;;;;;;;;;20.00;20.00;;;;;17.75;85.20;101263.31;5061815;28;50796;-75
2023/04/27 04:58:57;;;;;;;;;20.00;20.00;;;;;17.71;85.40;101269.31;5062150;28;45391;-75
2023/04/27 05:01:22;;;;;;;;;20.33;18.33;;;;;17.70;85.48;101262.31;5060027;28;60863;-75
2023/04/27 05:03:47;;;;;;;;;19.33;18.00;;;;;17.68;85.65;101265.19;5062061;28;45338;-75
2023/04/27 05:06:13;;;;;;;;;20.33;19.67;;;;;17.67;85.40;101261.72;5062057;28;45348;-75
2023/04/27 05:08:38;;;;;;;;;20.33;20.00;;;;;17.66;84.84;101254.66;5060973;28;45294;-76
2023/04/27 05:11:03;;;;;;;;;19.67;18.67;;;;;17.67;84.99;101256.31;5061856;28;45411;-75
2023/04/27 05:13:29;;;;;;;;;22.67;21.67;;;;;17.63;85.27;101249.69;5062057;28;45310;-76
2023/04/27 05:15:55;;;;;;;;;20.33;19.33;;;;;17.62;85.28;101263.34;5061935;28;45262;-76
2023/04/27 05:18:20;;;;;;;;;22.00;21.33;;;;;17.56;86.19;101259.63;5060239;28;45865;-75
2023/04/27 05:20:45;;;;;;;;;20.67;20.67;;;;;17.64;85.97;101259.44;5061372;28;50961;-76
2023/04/27 05:23:11;;;;;;;;;25.00;21.67;;;;;17.67;85.34;101256.31;5061562;28;45336;-75
2023/04/27 05:25:40;;;;;;;;;22.33;21.00;;;;;17.72;85.66;101260.25;5061847;28;45245;-75
2023/04/27 05:28:09;;;;;;;;;22.00;21.33;;;;;17.70;85.27;101257.75;5060552;28;45517;-75
2023/04/27 05:30:35;;;;;;;;;16.67;15.33;;;;;17.77;85.25;101257.75;5059891;28;47334;-75
2023/04/27 05:33:01;;;;;;;;;19.67;19.67;;;;;17.72;85.35;101255.69;5061134;28;45433;-75
2023/04/27 05:35:26;;;;;;;;;23.00;22.00;;;;;17.77;84.83;101261.25;5061379;28;45249;-75
2023/04/27 05:37:52;;;;;;;;;23.33;19.33;;;;;18.02;83.70;101268.63;5061113;28;45235;-75
2023/04/27 05:40:17;;;;;;;;;19.33;19.33;;;;;18.05;83.12;101268.22;5061465;28;46298;-75
2023/04/27 05:42:45;;;;;;;;;19.00;17.33;;;;;18.12;83.22;101267.41;5056407;28;45260;-75
2023/04/27 05:45:10;;;;;;;;;21.67;21.00;;;;;18.26;83.43;101274.38;5048308;28;45340;-75
2023/04/27 05:47:36;;;;;;;;;23.67;23.00;;;;;18.29;82.94;101265.88;5060728;28;45492;-75
2023/04/27 05:50:02;;;;;;;;;23.00;23.00;;;;;18.35;82.85;101271.47;5061272;28;45669;-75
2023/04/27 05:52:29;;;;;;;;;32.67;31.00;;;;;18.36;81.62;101267.72;5060874;28;45354;-75
2023/04/27 05:54:57;;;;;;;;;29.00;28.67;;;;;18.43;81.74;101271.22;5061334;28;45349;-75
2023/04/27 05:57:22;;;;;;;;;24.00;23.33;;;;;18.44;81.35;101262.13;5059870;28;46366;-75
2023/04/27 05:59:48;;;;;;;;;23.00;22.00;;;;;18.42;81.61;101259.66;5061128;28;45335;-75
2023/04/27 06:02:13;;;;;;;;;20.67;20.67;;;;;18.50;80.71;101253.16;5059257;28;60491;-75
2023/04/27 06:04:38;;;;;;;;;19.67;19.67;;;;;18.52;80.91;101251.09;5060895;28;50930;-75
2023/04/27 06:07:08;;;;;;;;;19.33;18.00;;;;;18.52;81.49;101252.94;5059120;28;54916;-75
2023/04/27 06:09:33;;;;;;;;;22.33;21.00;;;;;18.54;81.33;101257.09;5059464;28;47000;-75
2023/04/27 06:11:59;;;;;;;;;23.00;21.33;;;;;18.55;80.90;101249.81;5059579;28;45262;-75
2023/04/27 06:14:24;;;;;;;;;18.00;18.00;;;;;18.33;81.60;101254.69;5061086;28;45315;-75
2023/04/27 06:16:49;;;;;;;;;18.00;18.00;;;;;18.29;82.95;101248.94;5059508;28;46321;-75
2023/04/27 06:19:15;;;;;;;;;18.33;16.33;;;;;18.31;82.49;101251.41;5059431;28;48422;-75
2023/04/27 06:21:40;;;;;;;;;19.00;19.00;;;;;18.36;82.50;101262.34;5060566;28;45344;-75
2023/04/27 06:24:06;;;;;;;;;21.33;19.33;;;;;18.36;82.66;101259.66;5060788;28;47894;-75
2023/04/27 06:26:32;;;;;;;;;19.67;19.00;;;;;18.51;81.80;101272.84;5059349;28;46816;-75
2023/04/27 06:28:58;;;;;;;;;18.67;18.00;;;;;18.49;81.59;101273.06;5064716;28;48216;-75
2023/04/27 06:31:23;;;;;;;;;26.67;22.00;;;;;18.54;81.14;101275.94;5080677;27;45213;-75
2023/04/27 06:33:48;;;;;;;;;20.33;20.33;;;;;18.56;80.92;101259.56;5081149;27;45337;-75
2023/04/27 06:36:14;;;;;;;;;22.00;22.00;;;;;18.60;81.24;101270.72;5080524;27;45224;-75
2023/04/27 06:38:39;;;;;;;;;17.00;17.00;;;;;18.65;81.38;101265.53;5079156;28;53759;-75
2023/04/27 06:41:04;;;;;;;;;23.33;18.67;;;;;18.75;81.18;101257.81;5079024;28;55360;-75
2023/04/27 06:43:30;;;;;;;;;20.00;18.00;;;;;18.93;80.78;101270.53;5080924;27;45271;-75
2023/04/27 06:45:55;;;;;;;;;23.33;21.33;;;;;19.06;80.96;101268.78;5080737;27;45292;-75
2023/04/27 06:48:20;;;;;;;;;23.67;23.67;;;;;19.13;80.11;101260.69;5079160;28;48124;-75
2023/04/27 06:50:46;;;;;;;;;19.67;19.67;;;;;19.13;80.17;101250.72;5080278;27;51328;-76
2023/04/27 06:53:11;;;;;;;;;32.33;30.33;;;;;19.29;79.15;101262.84;5079304;28;45189;-75
2023/04/27 06:55:37;;;;;;;;;25.67;24.67;;;;;19.45;78.65;101265.19;5080579;27;45359;-75
2023/04/27 06:58:03;;;;;;;;;21.67;19.67;;;;;19.46;77.71;101254.19;5078137;28;48512;-75
2023/04/27 07:00:28;;;;;;;;;19.00;17.67;;;;;19.53;77.55;101259.50;5079209;28;45319;-75
2023/04/27 07:02:53;;;;;;;;;35.67;31.67;;;;;19.64;76.90;101291.13;5080641;27;45287;-76
2023/04/27 07:05:19;;;;;;;;;43.33;38.00;;;;;19.64;76.56;101293.81;5078974;28;47309;-75
2023/04/27 07:07:44;;;;;;;;;44.67;38.00;;;;;19.67;77.54;101293.38;5079936;27;45231;-76
2023/04/27 07:10:10;;;;;;;;;34.00;30.67;;;;;19.72;75.77;101290.00;5079111;28;45362;-76
2023/04/27 07:12:37;;;;;;;;;23.67;22.33;;;;;19.78;76.27;101286.44;5079080;28;45439;-76
2023/04/27 07:15:05;;;;;;;;;16.33;15.67;;;;;19.77;75.08;101279.41;5074448;28;45296;-76
2023/04/27 07:17:30;;;;;;;;;23.33;21.67;;;;;19.74;74.65;101273.63;5059695;28;46167;-75
2023/04/27 07:19:55;;;;;;;;;31.33;29.00;;;;;19.74;73.88;101290.63;5059809;28;45392;-75
2023/04/27 07:22:21;;;;;;;;;19.67;19.67;;;;;19.70;72.90;101275.94;5057825;28;53508;-76
2023/04/27 07:24:46;;;;;;;;;32.00;28.00;;;;;19.72;73.96;101281.94;5059778;28;45196;-76
2023/04/27 07:27:12;;;;;;;;;9.00;9.00;;;;;19.71;72.20;101276.75;5059585;28;51290;-75
2023/04/27 07:29:38;;;;;;;;;14.00;14.00;;;;;19.83;70.53;101271.44;5070892;28;45358;-75
2023/04/27 07:32:07;;;;;;;;;16.67;13.00;;;;;19.83;71.34;101274.16;5078368;28;45265;-75
2023/04/27 07:34:33;;;;;;;;;18.67;15.67;;;;;19.97;71.47;101270.28;5078729;28;46192;-75
2023/04/27 07:36:58;;;;;;;;;15.00;14.00;;;;;20.06;70.71;101266.25;5079216;27;45625;-75
2023/04/27 07:39:25;;;;;;;;;12.67;12.00;;;;;20.04;69.52;101249.47;5079698;28;45938;-76
2023/04/27 07:41:50;;;;;;;;;12.67;12.00;;;;;20.16;67.56;101254.94;5080153;27;45342;-76
2023/04/27 07:44:17;;;;;;;;;23.33;20.00;;;;;20.18;68.15;101260.91;5079647;27;45350;-75
2023/04/27 07:46:43;;;;;;;;;14.00;14.00;;;;;20.18;67.03;101252.81;5078402;28;47426;-75
2023/04/27 07:49:08;;;;;;;;;18.67;18.67;;;;;20.19;66.39;101242.84;5078204;28;45323;-75
2023/04/27 07:51:33;;;;;;;;;20.00;20.00;;;;;20.30;66.70;101243.97;5078239;28;45305;-75
2023/04/27 07:54:01;;;;;;;;;11.33;10.00;;;;;20.34;66.45;101242.47;5078330;28;46055;-75
2023/04/27 07:56:26;;;;;;;;;11.67;11.67;;;;;20.37;64.52;101246.56;5079762;27;45345;-74
2023/04/27 07:58:51;;;;;;;;;11.00;10.00;;;;;20.39;64.02;101247.19;5079639;27;47083;-76
2023/04/27 08:01:17;;;;;;;;;10.33;10.00;;;;;20.51;64.43;101264.25;5078235;28;48209;-75
2023/04/27 08:03:42;;;;;;;;;8.33;8.33;;;;;20.64;64.01;101267.81;5078085;28;57473;-75
2023/04/27 08:06:07;;;;;;;;;9.67;8.00;;;;;20.65;61.36;101261.38;5077902;28;54588;-75
2023/04/27 08:08:32;;;;;;;;;12.33;10.00;;;;;20.76;62.90;101265.16;5079122;27;45325;-75
2023/04/27 08:10:58;;;;;;;;;9.00;9.00;;;;;20.90;63.17;101266.66;5082846;27;45376;-75
2023/04/27 08:13:23;;;;;;;;;11.00;11.00;;;;;20.98;59.13;101262.75;5082973;27;52314;-76
2023/04/27 08:15:50;;;;;;;;;8.67;8.33;;;;;21.00;60.95;101266.06;5083100;27;45332;-75
2023/04/27 08:18:16;;;;;;;;;10.33;8.33;;;;;20.97;57.63;101265.69;5081769;28;45944;-76
2023/04/27 08:20:42;;;;;;;;;21.00;19.33;;;;;21.03;58.91;101264.78;5083078;28;45341;-75
2023/04/27 08:23:07;;;;;;;;;14.33;13.00;;;;;21.13;58.88;101266.94;5082731;27;46763;-75
2023/04/27 08:25:34;;;;;;;;;9.67;9.33;;;;;21.22;58.72;101267.41;5082953;28;47377;-75
2023/04/27 08:28:00;;;;;;;;;17.33;16.00;;;;;21.46;58.51;101253.91;5081493;28;45366;-75
2023/04/27 08:30:25;;;;;;;;;12.00;12.00;;;;;21.62;57.14;101258.59;5064706;27;45561;-75
2023/04/27 08:32:50;;;;;;;;;18.33;14.00;;;;;21.55;57.31;101264.13;5061041;28;46933;-75
2023/04/27 08:35:16;;;;;;;;;28.33;25.00;;;;;21.53;55.84;101251.91;5060776;28;47282;-75
2023/04/27 08:37:41;;;;;;;;;12.67;11.67;;;;;21.65;56.71;101268.94;5060900;28;45438;-75
2023/04/27 08:40:08;;;;;;;;;7.00;7.00;;;;;21.66;54.32;101253.53;5060728;28;54418;-76
2023/04/27 08:42:34;;;;;;;;;8.67;8.67;;;;;21.69;54.28;101239.53;5062440;28;45473;-75
2023/04/27 08:44:59;;;;;;;;;10.00;10.00;;;;;21.74;55.33;101234.25;5062321;28;45331;-75
2023/04/27 08:47:25;;;;;;;;;20.33;19.00;;;;;21.93;55.79;101242.22;5060998;28;45328;-76
2023/04/27 08:49:50;;;;;;;;;29.67;25.67;;;;;21.98;54.61;101236.94;5062518;28;45242;-74
2023/04/27 08:52:16;;;;;;;;;10.67;10.67;;;;;22.11;54.07;101243.94;5060627;28;46323;-75
2023/04/27 08:54:42;;;;;;;;;12.33;10.67;;;;;21.82;54.24;101227.69;5062242;28;45266;-75
2023/04/27 08:57:09;;;;;;;;;137.25;121.25;;;;;21.81;54.42;101229.56;5062224;28;45361;-75
2023/04/27 08:59:35;;;;;;;;;27.33;27.33;;;;;21.76;54.29;101220.50;5061040;28;45344;-75
2023/04/27 09:02:00;;;;;;;;;11.33;11.33;;;;;21.81;54.12;101226.84;5061856;28;45457;-76
2023/04/27 09:04:35;;;;;;;;;11.67;9.67;;;;;21.92;53.87;101232.47;5062053;28;45634;-76
2023/04/27 09:07:12;;;;;;;;;7.33;7.33;;;;;22.02;54.96;101237.25;5061916;28;45420;-75
2023/04/27 09:09:37;;;;;;;;;8.67;8.33;;;;;22.04;52.50;101237.84;5062049;28;45287;-75
2023/04/27 09:12:12;;;;;;;;;8.00;8.00;;;;;22.07;53.26;101240.91;5061951;28;45480;-76
2023/04/27 09:14:38;;;;;;;;;12.33;12.00;;;;;22.11;54.14;101241.25;5061871;28;45321;-76
2023/04/27 09:17:03;;;;;;;;;19.33;17.33;;;;;22.18;53.72;101239.22;5060593;28;45317;-75
2023/04/27 09:19:29;;;;;;;;;14.00;13.00;;;;;22.28;53.93;101233.19;5059984;28;56652;-75
2023/04/27 09:22:09;;;;;;;;;10.67;10.00;;;;;22.29;52.01;101242.13;5059341;28;46207;-75
2023/04/27 09:24:36;;;;;;;;;6.67;6.67;;;;;22.26;53.35;101226.34;5061699;28;45433;-75
2023/04/27 09:27:02;;;;;;;;;8.00;8.00;;;;;22.36;51.75;101225.75;5061729;28;45290;-76
2023/04/27 09:29:35;;;;;;;;;7.00;7.00;;;;;22.40;53.64;101225.00;5071493;28;45269;-76
2023/04/27 09:32:00;;;;;;;;;8.00;8.00;;;;;22.56;53.10;101236.13;5080431;28;46015;-76
2023/04/27 09:34:36;;;;;;;;;9.67;9.67;;;;;22.62;51.91;101224.34;5081848;27;45338;-75
2023/04/27 09:37:02;;;;;;;;;8.00;8.00;;;;;22.69;52.74;101222.28;5081256;27;45330;-76
2023/04/27 09:39:27;;;;;;;;;15.00;14.67;;;;;22.74;52.45;101221.56;5081903;27;45903;-75
2023/04/27 09:41:53;;;;;;;;;7.00;7.00;;;;;22.79;51.84;101223.53;5081896;28;45239;-76
2023/04/27 09:44:19;;;;;;;;;7.67;7.67;;;;;22.90;52.51;101211.00;5081719;27;45270;-75
2023/04/27 09:46:47;;;;;;;;;23.00;20.00;;;;;22.97;53.24;101213.53;5081480;27;45366;-75
2023/04/27 09:49:14;;;;;;;;;46.67;37.00;;;;;23.01;53.08;101217.41;5080353;28;45291;-75
2023/04/27 09:51:40;;;;;;;;;21.33;19.00;;;;;23.12;52.86;101213.78;5081256;27;45383;-75
2023/04/27 09:54:10;;;;;;;;;11.00;11.00;;;;;23.25;52.54;101219.94;5075514;27;45398;-76
2023/04/27 09:56:55;;;;;;;;;7.00;7.00;;;;;23.33;52.70;101217.63;5061140;28;45221;-76
2023/04/27 09:59:26;;;;;;;;;8.00;8.00;;;;;23.41;52.23;101210.16;5059951;28;45314;-75
2023/04/27 10:01:55;;;;;;;;;7.67;6.67;;;;;23.49;53.56;101209.72;5076640;28;46442;-75
2023/04/27 10:04:42;;;;;;;;;8.00;8.00;;;;;23.60;53.36;101223.41;5060930;28;47141;-75
2023/04/27 10:07:11;;;;;;;;;6.00;6.00;;;;;23.57;52.98;101206.59;5060831;28;45421;-75
2023/04/27 10:09:45;;;;;;;;;8.00;7.67;;;;;23.66;52.78;101217.81;5061260;28;45257;-76
2023/04/27 10:12:16;;;;;;;;;8.33;6.33;;;;;23.54;52.14;101227.94;5060689;28;45390;-75
2023/04/27 10:14:56;;;;;;;;;7.00;7.00;;;;;23.52;52.08;101221.97;5059670;28;48447;-75
2023/04/27 10:17:30;;;;;;;;;7.00;7.00;;;;;24.01;51.86;101226.66;5061045;28;45395;-75
2023/04/27 10:20:07;;;;;;;;;7.00;7.00;;;;;24.15;50.83;101216.25;5076579;28;45445;-75
2023/04/27 10:22:40;;;;;;;;;9.00;8.00;;;;;24.30;51.57;101215.59;5060592;28;45311;-76
2023/04/27 10:25:27;;;;;;;;;69.75;64.25;;;;;24.45;50.47;101214.91;5060641;28;45947;-76
2023/04/27 10:27:58;;;;;;;;;21.67;20.00;;;;;24.60;50.52;101224.28;5060626;28;45458;-75
2023/04/27 10:30:26;;;;;;;;;7.67;7.00;;;;;24.62;49.99;101203.13;5076917;28;45330;-75
2023/04/27 10:32:59;;;;;;;;;7.00;5.67;;;;;24.83;48.44;101208.72;5079464;28;46093;-75
2023/04/27 10:35:35;;;;;;;;;8.00;8.00;;;;;24.94;48.53;101199.63;5079356;28;47297;-75
2023/04/27 10:38:19;;;;;;;;;8.00;8.00;;;;;25.09;49.40;101207.06;5079183;28;45313;-75
2023/04/27 10:40:53;;;;;;;;;6.33;6.00;;;;;25.32;48.91;101193.31;5081082;27;45295;-75
2023/04/27 10:43:25;;;;;;;;;7.33;7.33;;;;;25.42;49.37;101200.72;5080826;27;45382;-75
2023/04/27 10:45:50;;;;;;;;;8.67;7.67;;;;;25.39;47.45;101190.34;5079396;28;47126;-75
2023/04/27 10:48:16;;;;;;;;;8.67;8.67;;;;;25.34;47.90;101183.81;5080415;27;45187;-76
2023/04/27 10:50:43;;;;;;;;;8.33;8.33;;;;;25.46;47.30;101185.50;5080927;27;45216;-76
2023/04/27 10:53:09;;;;;;;;;9.33;9.33;;;;;25.49;47.79;101192.31;5080430;27;45298;-75
2023/04/27 10:55:35;;;;;;;;;5.33;5.33;;;;;25.59;48.26;101195.09;5080538;28;45310;-75
2023/04/27 10:58:01;;;;;;;;;6.67;6.67;;;;;25.68;47.62;101179.09;5079424;28;45434;-76
2023/04/27 11:00:36;;;;;;;;;7.00;7.00;;;;;25.81;45.61;101189.50;5080794;27;45346;-76
2023/04/27 11:03:21;;;;;;;;;9.33;9.33;;;;;25.87;46.83;101195.75;5080548;28;45511;-75
2023/04/27 11:05:48;;;;;;;;;8.67;7.33;;;;;26.01;48.01;101197.97;5080121;28;45303;-76
2023/04/27 11:08:15;;;;;;;;;7.00;7.00;;;;;26.00;46.58;101191.72;5080164;27;45502;-75